createdAt,value
2024-05-09T00:00:18.601Z,24.27
2024-05-09T00:00:58.696Z,23.60
2024-05-09T00:01:33.770Z,23.58
2024-05-09T00:02:06.140Z,23.73
2024-05-09T00:02:40.944Z,23.70
2024-05-09T00:03:13.620Z,24.38
2024-05-09T00:03:48.824Z,23.90
2024-05-09T00:04:24.176Z,22.92
2024-05-09T00:04:56.678Z,22.20
2024-05-09T00:05:29.142Z,22.08
2024-05-09T00:06:04.449Z,22.88
2024-05-09T00:06:36.832Z,23.05
2024-05-09T00:07:09.118Z,23.75
2024-05-09T00:07:41.402Z,25.70
2024-05-09T00:08:16.667Z,25.15
2024-05-09T00:08:49.165Z,24.42
2024-05-09T00:09:21.451Z,22.35
2024-05-09T00:09:53.764Z,23.75
2024-05-09T00:10:35.199Z,22.88
2024-05-09T00:11:10.223Z,22.85
2024-05-09T00:11:42.746Z,23.77
2024-05-09T00:12:15.278Z,24.30
2024-05-09T00:12:50.269Z,22.45
2024-05-09T00:13:22.572Z,24.00
2024-05-09T00:13:54.895Z,22.30
2024-05-09T00:14:27.262Z,22.02
2024-05-09T00:15:02.330Z,21.90
2024-05-09T00:15:35.464Z,23.40
2024-05-09T00:16:08.368Z,23.35
2024-05-09T00:16:40.708Z,22.02
2024-05-09T00:17:15.800Z,24.25
2024-05-09T00:17:48.377Z,22.58
2024-05-09T00:18:21.081Z,22.90
2024-05-09T00:18:53.597Z,23.45
2024-05-09T00:19:31.741Z,22.98
2024-05-09T00:20:11.098Z,23.92
2024-05-09T00:20:46.822Z,24.17
2024-05-09T00:21:21.814Z,23.02
2024-05-09T00:21:54.114Z,23.73
2024-05-09T00:22:26.544Z,24.10
2024-05-09T00:22:58.898Z,24.27
2024-05-09T00:23:33.903Z,23.95
2024-05-09T00:24:06.562Z,25.45
2024-05-09T00:24:38.857Z,23.92
2024-05-09T00:25:13.786Z,23.88
2024-05-09T00:25:46.172Z,24.75
2024-05-09T00:26:18.520Z,23.23
2024-05-09T00:26:50.862Z,23.35
2024-05-09T00:27:25.839Z,23.48
2024-05-09T00:27:58.156Z,27.27
2024-05-09T00:28:30.473Z,22.08
2024-05-09T00:29:05.427Z,21.95
2024-05-09T00:29:37.790Z,22.60
2024-05-09T00:30:14.379Z,22.52
2024-05-09T00:30:49.866Z,22.85
2024-05-09T00:31:27.087Z,23.60
2024-05-09T00:31:59.452Z,24.73
2024-05-09T00:32:31.959Z,22.70
2024-05-09T00:33:06.305Z,23.90
2024-05-09T00:33:42.635Z,24.80
2024-05-09T00:34:15.231Z,22.08
2024-05-09T00:34:50.247Z,21.98
2024-05-09T00:35:22.680Z,22.42
2024-05-09T00:35:57.655Z,23.25
2024-05-09T00:36:29.938Z,24.27
2024-05-09T00:37:02.218Z,21.75
2024-05-09T00:37:34.494Z,21.88
2024-05-09T00:38:07.162Z,23.05
2024-05-09T00:38:42.321Z,22.85
2024-05-09T00:39:14.655Z,23.73
2024-05-09T00:39:46.956Z,22.52
2024-05-09T00:40:27.246Z,23.75
2024-05-09T00:41:10.686Z,22.65
2024-05-09T00:41:43.085Z,21.65
2024-05-09T00:42:15.387Z,24.75
2024-05-09T00:42:47.714Z,22.27
2024-05-09T00:43:22.698Z,23.27
2024-05-09T00:43:54.982Z,25.30
2024-05-09T00:44:27.399Z,23.75
2024-05-09T00:45:02.433Z,22.90
2024-05-09T00:45:35.246Z,22.05
2024-05-09T00:46:08.568Z,22.25
2024-05-09T00:46:44.302Z,24.02
2024-05-09T00:47:18.135Z,24.13
2024-05-09T00:47:50.784Z,22.63
2024-05-09T00:48:26.740Z,22.88
2024-05-09T00:48:59.392Z,22.05
2024-05-09T00:49:33.329Z,23.13
2024-05-09T00:50:19.029Z,22.63
2024-05-09T00:50:57.640Z,22.70
2024-05-09T00:51:30.112Z,21.83
2024-05-09T00:52:03.082Z,23.23
2024-05-09T00:52:38.803Z,23.35
2024-05-09T00:53:12.986Z,22.63
2024-05-09T00:53:46.363Z,21.77
2024-05-09T00:54:21.975Z,23.20
2024-05-09T00:54:54.908Z,22.65
2024-05-09T00:55:27.652Z,22.90
2024-05-09T00:56:00.344Z,22.70
2024-05-09T00:56:38.069Z,24.00
2024-05-09T00:57:10.479Z,22.15
2024-05-09T00:57:43.862Z,21.50
2024-05-09T00:58:18.435Z,22.45
2024-05-09T00:58:53.921Z,23.88
2024-05-09T00:59:27.526Z,22.67
2024-05-09T01:00:00.512Z,23.02
2024-05-09T01:00:38.894Z,21.00
2024-05-09T01:01:15.903Z,23.20
2024-05-09T01:01:49.065Z,22.70
2024-05-09T01:02:22.558Z,21.77
2024-05-09T01:02:57.778Z,24.27
2024-05-09T01:03:30.363Z,20.98
2024-05-09T01:04:03.188Z,22.05
2024-05-09T01:04:35.732Z,23.50
2024-05-09T01:05:13.713Z,23.20
2024-05-09T01:05:46.242Z,23.05
2024-05-09T01:06:20.599Z,21.63
2024-05-09T01:06:52.933Z,22.48
2024-05-09T01:07:28.042Z,23.55
2024-05-09T01:08:00.553Z,21.85
2024-05-09T01:08:33.091Z,23.08
2024-05-09T01:09:08.129Z,24.05
2024-05-09T01:09:40.462Z,22.10
2024-05-09T01:10:17.429Z,22.63
2024-05-09T01:10:58.911Z,22.80
2024-05-09T01:11:37.063Z,21.70
2024-05-09T01:12:09.730Z,23.25
2024-05-09T01:12:42.103Z,24.27
2024-05-09T01:13:17.163Z,23.70
2024-05-09T01:13:49.568Z,22.55
2024-05-09T01:14:22.039Z,23.48
2024-05-09T01:14:57.103Z,23.30
2024-05-09T01:15:29.393Z,23.52
2024-05-09T01:16:02.236Z,23.48
2024-05-09T01:16:34.770Z,22.60
2024-05-09T01:17:09.983Z,22.98
2024-05-09T01:17:42.556Z,21.75
2024-05-09T01:18:15.542Z,23.15
2024-05-09T01:18:48.125Z,23.00
2024-05-09T01:19:26.376Z,22.33
2024-05-09T01:19:58.921Z,22.30
2024-05-09T01:20:41.105Z,23.77
2024-05-09T01:21:18.781Z,21.48
2024-05-09T01:21:51.097Z,22.20
2024-05-09T01:22:25.393Z,22.75
2024-05-09T01:22:58.220Z,24.33
2024-05-09T01:23:35.917Z,23.98
2024-05-09T01:24:08.231Z,22.92
2024-05-09T01:24:40.519Z,22.83
2024-05-09T01:25:15.724Z,24.17
2024-05-09T01:25:48.059Z,22.83
2024-05-09T01:26:20.472Z,23.48
2024-05-09T01:26:52.871Z,22.48
2024-05-09T01:27:27.803Z,24.52
2024-05-09T01:28:00.091Z,22.40
2024-05-09T01:28:32.376Z,25.25
2024-05-09T01:29:04.826Z,24.30
2024-05-09T01:29:39.790Z,23.45
2024-05-09T01:30:17.287Z,22.23
2024-05-09T01:30:53.462Z,24.30
2024-05-09T01:31:28.414Z,23.50
2024-05-09T01:32:00.927Z,23.88
2024-05-09T01:32:33.397Z,22.35
2024-05-09T01:33:08.549Z,21.88
2024-05-09T01:33:46.164Z,23.05
2024-05-09T01:34:18.695Z,21.08
2024-05-09T01:34:51.108Z,22.13
2024-05-09T01:35:23.807Z,21.85
2024-05-09T01:35:58.948Z,23.20
2024-05-09T01:36:31.450Z,22.10
2024-05-09T01:37:04.025Z,22.98
2024-05-09T01:37:40.308Z,22.75
2024-05-09T01:38:13.894Z,22.98
2024-05-09T01:38:49.237Z,23.48
2024-05-09T01:39:21.550Z,21.45
2024-05-09T01:39:56.525Z,22.58
2024-05-09T01:40:36.665Z,23.77
2024-05-09T01:41:11.599Z,23.48
2024-05-09T01:41:46.555Z,22.23
2024-05-09T01:42:18.841Z,22.40
2024-05-09T01:42:51.139Z,22.25
2024-05-09T01:43:23.435Z,21.35
2024-05-09T01:43:58.430Z,23.67
2024-05-09T01:44:30.839Z,22.60
2024-05-09T01:45:03.239Z,21.92
2024-05-09T01:45:35.545Z,22.35
2024-05-09T01:46:15.906Z,22.38
2024-05-09T01:46:48.243Z,21.40
2024-05-09T01:47:20.703Z,21.75
2024-05-09T01:47:53.306Z,21.80
2024-05-09T01:48:28.511Z,22.85
2024-05-09T01:49:00.964Z,22.42
2024-05-09T01:49:37.281Z,23.23
2024-05-09T01:50:11.062Z,21.08
2024-05-09T01:50:46.307Z,22.30
2024-05-09T01:51:18.689Z,22.58
2024-05-09T01:51:51.022Z,23.17
2024-05-09T01:52:23.314Z,24.35
2024-05-09T01:52:58.270Z,25.27
2024-05-09T01:53:30.741Z,23.55
2024-05-09T01:54:06.421Z,24.42
2024-05-09T01:54:38.706Z,24.02
2024-05-09T01:55:13.671Z,23.25
2024-05-09T01:55:46.116Z,22.35
2024-05-09T01:56:18.471Z,22.23
2024-05-09T01:56:53.443Z,22.77
2024-05-09T01:57:25.776Z,25.00
2024-05-09T01:57:58.110Z,24.77
2024-05-09T01:58:33.252Z,24.42
2024-05-09T01:59:06.802Z,24.65
2024-05-09T01:59:39.261Z,24.85
2024-05-09T02:00:22.157Z,22.60
2024-05-09T02:01:01.899Z,23.10
2024-05-09T02:01:55.516Z,22.83
2024-05-09T02:02:29.335Z,21.83
2024-05-09T02:03:02.022Z,21.63
2024-05-09T02:03:34.661Z,22.55
2024-05-09T02:04:07.537Z,24.08
2024-05-09T02:04:42.737Z,24.70
2024-05-09T02:05:15.294Z,23.30
2024-05-09T02:05:49.705Z,22.27
2024-05-09T02:06:22.266Z,23.52
2024-05-09T02:06:57.230Z,22.92
2024-05-09T02:07:29.510Z,21.73
2024-05-09T02:08:01.896Z,22.50
2024-05-09T02:08:36.978Z,24.38
2024-05-09T02:09:12.030Z,23.30
2024-05-09T02:09:44.324Z,24.33
2024-05-09T02:10:23.315Z,23.60
2024-05-09T02:11:05.061Z,22.75
2024-05-09T02:11:42.808Z,21.45
2024-05-09T02:12:15.303Z,22.75
2024-05-09T02:12:47.668Z,24.70
2024-05-09T02:13:22.624Z,23.67
2024-05-09T02:13:54.945Z,23.85
2024-05-09T02:14:27.467Z,21.83
2024-05-09T02:14:59.897Z,23.13
2024-05-09T02:15:34.827Z,23.60
2024-05-09T02:16:11.337Z,22.73
2024-05-09T02:16:43.788Z,23.67
2024-05-09T02:17:16.319Z,23.33
2024-05-09T02:17:51.879Z,22.55
2024-05-09T02:18:24.325Z,22.75
2024-05-09T02:18:56.758Z,23.58
2024-05-09T02:19:29.172Z,25.73
2024-05-09T02:20:06.110Z,23.60
2024-05-09T02:20:39.473Z,22.63
2024-05-09T02:21:12.173Z,24.05
2024-05-09T02:21:44.477Z,23.75
2024-05-09T02:22:19.400Z,23.00
2024-05-09T02:22:51.725Z,24.58
2024-05-09T02:23:24.127Z,24.73
2024-05-09T02:23:56.450Z,23.25
2024-05-09T02:24:34.095Z,22.70
2024-05-09T02:25:06.635Z,23.23
2024-05-09T02:25:38.990Z,23.25
2024-05-09T02:26:11.311Z,21.90
2024-05-09T02:26:46.367Z,22.38
2024-05-09T02:27:18.651Z,22.98
2024-05-09T02:27:50.983Z,23.60
2024-05-09T02:28:23.334Z,22.90
2024-05-09T02:28:58.377Z,23.40
2024-05-09T02:29:30.829Z,22.35
2024-05-09T02:30:04.697Z,23.70
2024-05-09T02:30:41.902Z,21.90
2024-05-09T02:31:17.550Z,22.38
2024-05-09T02:31:49.997Z,21.77
2024-05-09T02:32:22.436Z,22.05
2024-05-09T02:32:54.934Z,23.05
2024-05-09T02:33:30.996Z,23.77
2024-05-09T02:34:04.325Z,21.55
2024-05-09T02:34:36.794Z,21.77
2024-05-09T02:35:09.145Z,23.50
2024-05-09T02:35:44.654Z,20.88
2024-05-09T02:36:17.203Z,21.05
2024-05-09T02:36:49.487Z,21.77
2024-05-09T02:37:21.809Z,21.65
2024-05-09T02:37:54.156Z,22.85
2024-05-09T02:38:26.516Z,22.33
2024-05-09T02:38:58.828Z,21.58
2024-05-09T02:39:37.052Z,23.17
2024-05-09T02:40:14.547Z,21.90
2024-05-09T02:40:50.329Z,20.85
2024-05-09T02:41:22.769Z,20.90
2024-05-09T02:41:55.147Z,22.20
2024-05-09T02:42:27.494Z,20.75
2024-05-09T02:43:00.564Z,21.58
2024-05-09T02:43:35.641Z,21.30
2024-05-09T02:44:07.943Z,19.98
2024-05-09T02:44:40.240Z,19.88
2024-05-09T02:45:12.575Z,20.70
2024-05-09T02:45:44.882Z,20.50
2024-05-09T02:46:17.168Z,19.77
2024-05-09T02:46:50.245Z,18.55
2024-05-09T02:47:25.432Z,19.40
2024-05-09T02:47:58.018Z,19.27
2024-05-09T02:48:30.643Z,20.67
2024-05-09T02:49:03.132Z,20.58
2024-05-09T02:49:35.568Z,19.92
2024-05-09T02:50:08.527Z,20.58
2024-05-09T02:50:41.211Z,23.13
2024-05-09T02:51:16.461Z,21.17
2024-05-09T02:51:48.796Z,20.90
2024-05-09T02:52:21.175Z,21.85
2024-05-09T02:52:53.545Z,21.88
2024-05-09T02:53:25.908Z,20.02
2024-05-09T02:53:58.299Z,21.92
2024-05-09T02:54:30.592Z,20.92
2024-05-09T02:55:08.491Z,21.13
2024-05-09T02:55:42.419Z,22.02
2024-05-09T02:56:14.986Z,22.33
2024-05-09T02:56:47.302Z,22.60
2024-05-09T02:57:19.581Z,22.50
2024-05-09T02:57:54.524Z,21.88
2024-05-09T02:58:26.802Z,23.08
2024-05-09T02:58:59.550Z,23.27
2024-05-09T02:59:31.891Z,20.45
2024-05-09T03:00:06.142Z,24.48
2024-05-09T03:00:42.271Z,23.13
2024-05-09T03:01:20.430Z,22.58
2024-05-09T03:01:53.016Z,21.90
2024-05-09T03:02:27.005Z,22.23
2024-05-09T03:02:59.575Z,23.35
2024-05-09T03:03:32.136Z,24.23
2024-05-09T03:04:05.259Z,21.67
2024-05-09T03:04:38.804Z,21.95
2024-05-09T03:05:11.803Z,22.25
2024-05-09T03:05:47.306Z,24.27
2024-05-09T03:06:19.653Z,23.05
2024-05-09T03:06:51.931Z,21.45
2024-05-09T03:07:24.252Z,22.20
2024-05-09T03:07:56.582Z,24.25
2024-05-09T03:08:29.003Z,23.40
2024-05-09T03:09:04.876Z,25.25
2024-05-09T03:09:37.200Z,22.65
2024-05-09T03:10:18.533Z,24.00
2024-05-09T03:10:54.857Z,22.92
2024-05-09T03:11:27.433Z,25.02
2024-05-09T03:11:59.967Z,23.88
2024-05-09T03:12:36.561Z,24.70
2024-05-09T03:13:11.721Z,23.77
2024-05-09T03:13:44.269Z,23.58
2024-05-09T03:14:16.866Z,22.83
2024-05-09T03:14:50.595Z,25.33
2024-05-09T03:15:22.863Z,23.88
2024-05-09T03:15:55.148Z,23.42
2024-05-09T03:16:30.214Z,23.45
2024-05-09T03:17:02.567Z,24.38
2024-05-09T03:17:35.148Z,23.80
2024-05-09T03:18:08.010Z,23.17
2024-05-09T03:18:40.524Z,22.67
2024-05-09T03:19:13.005Z,23.95
2024-05-09T03:19:48.170Z,22.98
2024-05-09T03:20:24.181Z,22.50
2024-05-09T03:21:02.926Z,23.70
2024-05-09T03:21:39.014Z,23.00
2024-05-09T03:22:12.536Z,24.80
2024-05-09T03:22:47.581Z,23.30
2024-05-09T03:23:20.108Z,24.35
2024-05-09T03:23:52.448Z,23.08
2024-05-09T03:24:24.785Z,24.17
2024-05-09T03:24:57.093Z,24.10
2024-05-09T03:25:32.089Z,24.33
2024-05-09T03:26:12.291Z,23.33
2024-05-09T03:26:44.800Z,23.10
2024-05-09T03:27:17.779Z,24.38
2024-05-09T03:27:50.138Z,25.55
2024-05-09T03:28:22.480Z,24.23
2024-05-09T03:28:54.845Z,22.85
2024-05-09T03:29:27.458Z,22.35
2024-05-09T03:30:03.832Z,24.45
2024-05-09T03:30:41.922Z,24.33
2024-05-09T03:31:18.322Z,23.77
2024-05-09T03:31:50.731Z,22.63
2024-05-09T03:32:23.172Z,24.15
2024-05-09T03:32:55.728Z,24.92
2024-05-09T03:33:28.352Z,25.00
2024-05-09T03:34:03.561Z,23.23
2024-05-09T03:34:35.977Z,23.27
2024-05-09T03:35:08.393Z,23.80
2024-05-09T03:35:40.950Z,24.40
2024-05-09T03:36:13.355Z,25.95
2024-05-09T03:36:48.283Z,25.23
2024-05-09T03:37:20.571Z,24.85
2024-05-09T03:37:52.884Z,24.85
2024-05-09T03:38:25.370Z,23.67
2024-05-09T03:38:58.463Z,22.40
2024-05-09T03:39:33.401Z,24.60
2024-05-09T03:40:11.810Z,22.90
2024-05-09T03:40:50.886Z,25.25
2024-05-09T03:41:23.494Z,25.02
2024-05-09T03:41:58.504Z,24.88
2024-05-09T03:42:30.803Z,24.38
2024-05-09T03:43:03.205Z,23.52
2024-05-09T03:43:35.595Z,24.33
2024-05-09T03:44:08.502Z,24.00
2024-05-09T03:44:43.665Z,23.70
2024-05-09T03:45:16.674Z,24.00
2024-05-09T03:45:49.996Z,25.85
2024-05-09T03:46:22.297Z,22.85
2024-05-09T03:46:54.643Z,22.77
2024-05-09T03:47:27.114Z,24.27
2024-05-09T03:48:02.463Z,25.52
2024-05-09T03:48:35.956Z,25.60
2024-05-09T03:49:08.572Z,23.90
2024-05-09T03:49:41.143Z,25.35
2024-05-09T03:50:21.976Z,23.70
2024-05-09T03:50:58.281Z,23.80
2024-05-09T03:51:30.582Z,25.65
2024-05-09T03:52:06.050Z,25.08
2024-05-09T03:52:38.380Z,24.08
2024-05-09T03:53:12.247Z,25.00
2024-05-09T03:53:44.683Z,24.15
2024-05-09T03:54:17.022Z,22.90
2024-05-09T03:54:49.297Z,23.50
2024-05-09T03:55:21.588Z,22.27
2024-05-09T03:55:59.787Z,23.42
2024-05-09T03:56:32.272Z,22.58
2024-05-09T03:57:05.290Z,22.92
2024-05-09T03:57:37.578Z,23.08
2024-05-09T03:58:10.033Z,24.30
2024-05-09T03:58:42.348Z,25.40
2024-05-09T03:59:14.664Z,25.95
2024-05-09T03:59:49.630Z,23.95
2024-05-09T04:00:31.078Z,24.10
2024-05-09T04:01:09.789Z,23.52
2024-05-09T04:01:42.337Z,23.67
2024-05-09T04:02:14.898Z,24.05
2024-05-09T04:02:47.939Z,24.33
2024-05-09T04:03:20.641Z,22.02
2024-05-09T04:03:55.936Z,23.92
2024-05-09T04:04:28.398Z,23.63
2024-05-09T04:05:00.863Z,24.38
2024-05-09T04:05:33.484Z,22.52
2024-05-09T04:06:06.097Z,23.70
2024-05-09T04:06:38.437Z,24.65
2024-05-09T04:07:10.792Z,24.00
2024-05-09T04:07:43.972Z,22.98
2024-05-09T04:08:19.120Z,24.08
2024-05-09T04:08:51.567Z,23.13
2024-05-09T04:09:23.865Z,22.42
2024-05-09T04:09:56.165Z,22.20
2024-05-09T04:10:33.432Z,23.90
2024-05-09T04:11:12.771Z,21.83
2024-05-09T04:11:45.287Z,22.10
2024-05-09T04:12:17.766Z,22.90
2024-05-09T04:12:50.145Z,23.20
2024-05-09T04:13:22.468Z,22.88
2024-05-09T04:13:54.844Z,23.25
2024-05-09T04:14:27.230Z,23.90
2024-05-09T04:15:02.396Z,21.88
2024-05-09T04:15:34.686Z,21.90
2024-05-09T04:16:10.123Z,23.77
2024-05-09T04:16:42.684Z,23.48
2024-05-09T04:17:15.047Z,22.90
2024-05-09T04:17:51.768Z,22.45
2024-05-09T04:18:26.905Z,21.45
2024-05-09T04:18:59.343Z,22.00
2024-05-09T04:19:31.854Z,22.10
2024-05-09T04:20:08.244Z,22.58
2024-05-09T04:20:41.479Z,22.27
2024-05-09T04:21:13.995Z,22.15
2024-05-09T04:21:49.031Z,22.95
2024-05-09T04:22:21.364Z,22.80
2024-05-09T04:22:53.742Z,22.75
2024-05-09T04:23:26.098Z,23.20
2024-05-09T04:23:58.402Z,21.92
2024-05-09T04:24:30.705Z,23.67
2024-05-09T04:25:02.982Z,23.10
2024-05-09T04:25:35.270Z,22.13
2024-05-09T04:26:13.944Z,24.02
2024-05-09T04:26:46.299Z,22.98
2024-05-09T04:27:18.711Z,23.00
2024-05-09T04:27:55.545Z,22.77
2024-05-09T04:28:27.889Z,24.77
2024-05-09T04:29:00.191Z,22.15
2024-05-09T04:29:32.605Z,23.35
2024-05-09T04:30:15.264Z,22.65
2024-05-09T04:30:51.448Z,22.15
2024-05-09T04:31:23.789Z,21.90
2024-05-09T04:31:56.191Z,22.75
2024-05-09T04:32:28.835Z,21.67
2024-05-09T04:33:01.368Z,22.52
2024-05-09T04:33:36.658Z,22.63
2024-05-09T04:34:09.441Z,22.00
2024-05-09T04:34:41.967Z,22.05
2024-05-09T04:35:16.436Z,23.23
2024-05-09T04:35:49.524Z,21.73
2024-05-09T04:36:21.851Z,22.63
2024-05-09T04:36:54.167Z,22.33
2024-05-09T04:37:30.402Z,22.20
2024-05-09T04:38:03.424Z,22.25
2024-05-09T04:38:35.939Z,21.25
2024-05-09T04:39:08.380Z,21.35
2024-05-09T04:39:40.687Z,22.23
2024-05-09T04:40:24.047Z,22.02
2024-05-09T04:41:03.943Z,22.30
2024-05-09T04:41:42.082Z,21.23
2024-05-09T04:42:14.374Z,21.00
2024-05-09T04:42:46.670Z,21.40
2024-05-09T04:43:20.404Z,22.05
2024-05-09T04:43:52.784Z,21.55
2024-05-09T04:44:25.150Z,20.95
2024-05-09T04:44:58.794Z,24.05
2024-05-09T04:45:33.823Z,22.48
2024-05-09T04:46:06.111Z,23.02
2024-05-09T04:46:39.662Z,23.27
2024-05-09T04:47:12.108Z,22.30
2024-05-09T04:47:44.615Z,23.58
2024-05-09T04:48:17.306Z,21.50
2024-05-09T04:48:53.621Z,22.73
2024-05-09T04:49:26.180Z,21.00
2024-05-09T04:49:58.687Z,23.60
2024-05-09T04:50:36.842Z,22.65
2024-05-09T04:51:11.259Z,21.00
2024-05-09T04:51:43.560Z,22.92
2024-05-09T04:52:15.835Z,21.73
2024-05-09T04:52:50.825Z,20.60
2024-05-09T04:53:23.240Z,22.52
2024-05-09T04:53:55.783Z,21.77
2024-05-09T04:54:34.310Z,23.20
2024-05-09T04:55:08.820Z,21.35
2024-05-09T04:55:41.249Z,22.77
2024-05-09T04:56:16.258Z,23.08
2024-05-09T04:56:51.258Z,20.90
2024-05-09T04:57:23.523Z,21.42
2024-05-09T04:57:55.836Z,23.17
2024-05-09T04:58:28.132Z,21.75
2024-05-09T04:59:03.076Z,22.13
2024-05-09T04:59:36.331Z,21.70
2024-05-09T05:00:14.739Z,21.52
2024-05-09T05:00:53.982Z,21.17
2024-05-09T05:01:26.390Z,20.83
2024-05-09T05:01:58.884Z,20.90
2024-05-09T05:02:32.484Z,21.77
2024-05-09T05:03:10.277Z,20.35
2024-05-09T05:03:44.841Z,20.80
2024-05-09T05:04:17.619Z,20.98
2024-05-09T05:04:50.150Z,20.25
2024-05-09T05:05:22.527Z,22.60
2024-05-09T05:05:54.936Z,21.33
2024-05-09T05:06:27.342Z,21.15
2024-05-09T05:07:02.693Z,22.10
2024-05-09T05:07:38.010Z,21.10
2024-05-09T05:08:11.792Z,22.08
2024-05-09T05:08:44.254Z,22.10
2024-05-09T05:09:16.634Z,22.33
2024-05-09T05:09:48.975Z,20.85
2024-05-09T05:10:25.750Z,21.35
2024-05-09T05:11:05.608Z,20.80
2024-05-09T05:11:40.926Z,21.38
2024-05-09T05:12:30.893Z,20.70
2024-05-09T05:13:30.121Z,21.63
2024-05-09T05:14:02.476Z,21.30
2024-05-09T05:14:34.836Z,23.10
2024-05-09T05:15:07.842Z,21.52
2024-05-09T05:15:42.774Z,21.73
2024-05-09T05:16:15.041Z,19.65
2024-05-09T05:16:47.406Z,21.95
2024-05-09T05:17:19.830Z,22.42
2024-05-09T05:17:52.364Z,20.90
2024-05-09T05:18:25.804Z,21.65
2024-05-09T05:18:58.300Z,21.90
2024-05-09T05:19:30.968Z,20.77
2024-05-09T05:20:08.536Z,22.73
2024-05-09T05:20:41.334Z,21.92
2024-05-09T05:21:13.775Z,21.55
2024-05-09T05:21:46.111Z,21.08
2024-05-09T05:22:21.038Z,20.83
2024-05-09T05:22:53.386Z,20.70
2024-05-09T05:23:26.047Z,21.95
2024-05-09T05:23:58.450Z,20.95
2024-05-09T05:24:30.859Z,20.30
2024-05-09T05:25:03.250Z,21.65
2024-05-09T05:25:35.642Z,21.23
2024-05-09T05:26:10.655Z,21.40
2024-05-09T05:26:42.985Z,20.90
2024-05-09T05:27:17.947Z,22.17
2024-05-09T05:27:50.218Z,21.20
2024-05-09T05:28:22.814Z,21.65
2024-05-09T05:28:55.179Z,20.90
2024-05-09T05:29:27.536Z,21.92
2024-05-09T05:30:02.803Z,22.52
2024-05-09T05:30:37.563Z,22.60
2024-05-09T05:31:09.990Z,20.98
2024-05-09T05:31:42.351Z,20.10
2024-05-09T05:32:14.818Z,22.98
2024-05-09T05:32:47.396Z,22.15
2024-05-09T05:33:23.238Z,19.73
2024-05-09T05:33:56.001Z,23.08
2024-05-09T05:34:28.353Z,22.33
2024-05-09T05:35:00.753Z,20.40
2024-05-09T05:35:33.957Z,20.02
2024-05-09T05:36:07.462Z,21.15
2024-05-09T05:36:39.741Z,20.92
2024-05-09T05:37:14.694Z,22.48
2024-05-09T05:37:47.027Z,22.02
2024-05-09T05:38:21.957Z,20.33
2024-05-09T05:38:56.289Z,21.98
2024-05-09T05:39:28.710Z,20.55
2024-05-09T05:40:00.991Z,19.95
2024-05-09T05:40:37.040Z,21.40
2024-05-09T05:41:10.857Z,20.85
2024-05-09T05:41:45.854Z,22.08
2024-05-09T05:42:20.871Z,21.15
2024-05-09T05:42:53.178Z,21.85
2024-05-09T05:43:25.531Z,19.52
2024-05-09T05:43:57.916Z,19.63
2024-05-09T05:44:30.468Z,22.27
2024-05-09T05:45:03.626Z,19.98
2024-05-09T05:45:39.603Z,21.40
2024-05-09T05:46:11.915Z,21.25
2024-05-09T05:46:44.409Z,21.42
2024-05-09T05:47:16.919Z,21.48
2024-05-09T05:47:49.541Z,20.58
2024-05-09T05:48:22.237Z,21.10
2024-05-09T05:48:54.693Z,22.13
2024-05-09T05:49:29.923Z,22.42
2024-05-09T05:50:02.937Z,23.10
2024-05-09T05:50:37.633Z,20.90
2024-05-09T05:51:10.969Z,22.10
2024-05-09T05:51:43.272Z,21.95
2024-05-09T05:52:15.556Z,21.15
2024-05-09T05:52:50.551Z,21.85
2024-05-09T05:53:22.939Z,20.75
2024-05-09T05:53:55.287Z,20.92
2024-05-09T05:54:27.724Z,21.25
2024-05-09T05:55:00.060Z,21.00
2024-05-09T05:55:32.401Z,21.70
2024-05-09T05:56:08.278Z,20.58
2024-05-09T05:56:40.675Z,20.40
2024-05-09T05:57:13.678Z,21.25
2024-05-09T05:57:48.662Z,21.25
2024-05-09T05:58:21.585Z,20.83
2024-05-09T05:58:53.962Z,21.30
2024-05-09T05:59:29.150Z,20.40
2024-05-09T06:00:09.377Z,20.70
2024-05-09T06:00:42.977Z,20.50
2024-05-09T06:01:15.587Z,20.73
2024-05-09T06:01:47.975Z,20.35
2024-05-09T06:02:20.464Z,19.35
2024-05-09T06:02:53.270Z,21.67
2024-05-09T06:03:25.716Z,21.00
2024-05-09T06:03:58.222Z,21.73
2024-05-09T06:04:33.393Z,21.35
2024-05-09T06:05:06.484Z,22.77
2024-05-09T06:05:39.815Z,20.05
2024-05-09T06:06:14.130Z,21.98
2024-05-09T06:06:46.452Z,22.63
2024-05-09T06:07:21.426Z,19.65
2024-05-09T06:07:53.772Z,22.15
2024-05-09T06:08:28.884Z,21.83
2024-05-09T06:09:02.341Z,22.35
2024-05-09T06:09:34.812Z,20.73
2024-05-09T06:10:16.961Z,23.13
2024-05-09T06:10:56.281Z,20.05
2024-05-09T06:11:28.766Z,20.38
2024-05-09T06:12:01.410Z,21.25
2024-05-09T06:12:33.943Z,20.35
2024-05-09T06:13:11.055Z,20.25
2024-05-09T06:13:43.752Z,21.38
2024-05-09T06:14:18.812Z,21.92
2024-05-09T06:14:51.202Z,21.70
2024-05-09T06:15:23.532Z,21.42
2024-05-09T06:15:55.840Z,20.27
2024-05-09T06:16:28.163Z,22.45
2024-05-09T06:17:00.869Z,21.20
2024-05-09T06:17:33.313Z,20.40
2024-05-09T06:18:09.939Z,21.65
2024-05-09T06:18:43.332Z,22.30
2024-05-09T06:19:15.879Z,20.65
2024-05-09T06:19:48.761Z,22.27
2024-05-09T06:20:31.099Z,21.50
2024-05-09T06:21:10.248Z,20.20
2024-05-09T06:21:42.601Z,22.05
2024-05-09T06:22:14.921Z,21.88
2024-05-09T06:22:47.284Z,20.50
2024-05-09T06:23:19.679Z,20.13
2024-05-09T06:23:53.404Z,21.63
2024-05-09T06:24:25.724Z,21.63
2024-05-09T06:24:58.090Z,21.73
2024-05-09T06:25:33.064Z,23.08
2024-05-09T06:26:05.600Z,21.10
2024-05-09T06:26:41.240Z,21.70
2024-05-09T06:27:13.576Z,21.95
2024-05-09T06:27:45.920Z,20.52
2024-05-09T06:28:20.912Z,21.75
2024-05-09T06:28:53.250Z,21.45
2024-05-09T06:29:25.701Z,20.77
2024-05-09T06:30:00.785Z,21.73
2024-05-09T06:31:08.368Z,19.63
2024-05-09T06:31:41.037Z,22.20
2024-05-09T06:32:13.450Z,20.30
2024-05-09T06:32:45.965Z,21.67
2024-05-09T06:33:21.218Z,21.48
2024-05-09T06:33:53.830Z,21.20
2024-05-09T06:34:26.396Z,20.88
2024-05-09T06:34:58.782Z,21.83
2024-05-09T06:35:31.514Z,21.35
2024-05-09T06:36:04.270Z,20.67
2024-05-09T06:36:41.361Z,22.63
2024-05-09T06:37:13.754Z,20.15
2024-05-09T06:37:46.143Z,20.70
2024-05-09T06:38:18.544Z,19.33
2024-05-09T06:38:50.871Z,21.25
2024-05-09T06:39:23.410Z,21.55
2024-05-09T06:39:58.377Z,21.58
2024-05-09T06:40:37.242Z,22.80
2024-05-09T06:41:12.432Z,21.77
2024-05-09T06:41:44.780Z,20.90
2024-05-09T06:42:17.153Z,21.73
2024-05-09T06:42:49.502Z,21.85
2024-05-09T06:43:27.140Z,21.15
2024-05-09T06:43:59.505Z,21.65
2024-05-09T06:44:31.909Z,22.15
2024-05-09T06:45:04.656Z,22.15
2024-05-09T06:45:37.161Z,20.10
2024-05-09T06:46:09.516Z,22.40
2024-05-09T06:46:45.369Z,21.63
2024-05-09T06:47:17.781Z,21.58
2024-05-09T06:47:50.347Z,22.15
2024-05-09T06:48:23.269Z,21.58
2024-05-09T06:48:56.049Z,21.15
2024-05-09T06:49:30.150Z,21.58
2024-05-09T06:50:03.639Z,19.90
2024-05-09T06:50:40.453Z,21.85
2024-05-09T06:51:13.323Z,22.10
2024-05-09T06:51:45.656Z,20.42
2024-05-09T06:52:19.267Z,21.80
2024-05-09T06:52:51.600Z,20.23
2024-05-09T06:53:24.053Z,20.15
2024-05-09T06:53:59.131Z,22.63
2024-05-09T06:54:31.438Z,21.80
2024-05-09T06:55:03.944Z,20.98
2024-05-09T06:55:36.625Z,21.13
2024-05-09T06:56:09.058Z,20.73
2024-05-09T06:56:41.442Z,19.75
2024-05-09T06:57:16.403Z,19.55
2024-05-09T06:57:48.729Z,19.15
2024-05-09T06:58:23.729Z,20.63
2024-05-09T06:58:56.109Z,20.00
2024-05-09T06:59:28.832Z,20.27
2024-05-09T07:00:01.411Z,19.02
2024-05-09T07:00:39.060Z,19.70
2024-05-09T07:01:16.044Z,19.80
2024-05-09T07:01:48.448Z,20.48
2024-05-09T07:02:20.899Z,21.70
2024-05-09T07:02:53.407Z,21.10
2024-05-09T07:03:25.934Z,20.98
2024-05-09T07:03:58.421Z,19.70
2024-05-09T07:04:33.593Z,19.85
2024-05-09T07:05:06.598Z,20.15
2024-05-09T07:05:39.029Z,20.42
2024-05-09T07:06:11.493Z,18.15
2024-05-09T07:06:43.844Z,21.23
2024-05-09T07:07:16.185Z,19.98
2024-05-09T07:07:51.226Z,18.95
2024-05-09T07:08:23.684Z,18.45
2024-05-09T07:08:56.049Z,19.48
2024-05-09T07:09:28.374Z,20.63
2024-05-09T07:10:00.653Z,19.60
2024-05-09T07:10:36.656Z,19.23
2024-05-09T07:11:09.592Z,21.98
2024-05-09T07:11:42.095Z,21.92
2024-05-09T07:12:14.740Z,23.10
2024-05-09T07:12:47.712Z,22.00
2024-05-09T07:13:22.691Z,20.58
2024-05-09T07:13:57.715Z,22.50
2024-05-09T07:14:30.343Z,21.95
2024-05-09T07:15:02.774Z,20.52
2024-05-09T07:15:35.097Z,21.00
2024-05-09T07:16:07.722Z,20.23
2024-05-09T07:16:40.081Z,22.33